Nephi, UT

9:14 PM MDT on August 30, 2015 (GMT -0600)
Fountain Green | | Change Station
CLOSE
Current Station
Personal Weather Station
Location: Fountain Green, UT
Elevation: 5912 ft
Nearby Weather Stations

Elev 5912 ft 39.63 °N, 111.63 °W | Updated 11 minutes ago

Partly Cloudy
Partly Cloudy
70.7 °F
Feels Like 77 °F
N
3.1
Wind Variable Wind from West

Today
High -- | Low -- °F
--% Chance of Precip.
Yesterday
High -- | Low -- °F
Precip. -- in
6:53 AM 8:01 PM
Full, 97% visible
Pressure 29.95 in
Visibility 15.0 miles
Clouds Scattered Clouds 9000 ft
Mostly Cloudy 12000 ft
Heat Index 77 °F
Dew Point 44 °F
Humidity 38%
Rainfall 0.00 in
Snow Depth Not available.
UV 0 out of 12
Pollen 8.90 out of 12
Air Quality Not available.
Flu Activity Not available.
METAR KPVU 310250Z 30007KT 15SM SCT090 BKN120 23/13 A2995
Pressure 29.95 in
Visibility 15.0 miles
Clouds Scattered Clouds 9000 ft
Mostly Cloudy 12000 ft
Heat Index 77 °F
Dew Point 44 °F
Humidity 38%
Rainfall 0.00 in
Snow Depth Not available.
UV 0 out of 12
Pollen 8.90 out of 12
Air Quality Not available.
Flu Activity Not available.
METAR KPVU 310250Z 30007KT 15SM SCT090 BKN120 23/13 A2995
Nowcast | as of 8:40 PM MDT on August 30, 2015

Scattered showers and thunderstorms will continue this evening over portions of northern Utah and southwest Wyoming. The strongest storms at 830 PM were located between Springville and Mapleton...near Trial Lake...and just southwest of Altamont Wyoming. Some of the stronger storms may produce brief heavy rain...small hail...gusty winds and dangerous lightning.

×

10-Day Weather Forecast

×

Almanac

Astronomy

Aug. 30, 2015 Rise Set
Actual Time
Civil Twilight
Nautical Twilight
Astronomical Twilight
Moon
Length of Visible Light
Length of Day
Tomorrow will be .
, % of the Moon is Illuminated

Today's Extremes

State Highs State Lows

Community

WunderPhotos

Upload Photos

1,851,167 photos uploaded!

WunderBlogs® & News

Nearby

Air Quality

  Air Quality AQ Index Pollutant
Not available.

Snow Depth

Station Depth Elevation

Earthquake Activity

City Distance Mag. Time & Date
Minimum magnitude displayed is 2.5.

Coastal Water Temperatures

Place Temperature

Stations

Nearby Weather Stations

Station Location Temp. Windchill Dew Point Humidity Wind Precip. Elev Updated Type